createdAt,value
2022-10-18T00:00:52.554Z,75.51
2022-10-18T00:03:25.741Z,75.41
2022-10-18T00:06:00.064Z,75.41
2022-10-18T00:08:33.179Z,75.35
2022-10-18T00:11:06.949Z,75.18
2022-10-18T00:13:40.264Z,75.14
2022-10-18T00:16:16.603Z,75.18
2022-10-18T00:18:49.528Z,75.11
2022-10-18T00:21:24.148Z,75.10
2022-10-18T00:23:58.603Z,75.00
2022-10-18T00:26:32.526Z,74.81
2022-10-18T00:29:07.783Z,74.63
2022-10-18T00:31:41.023Z,74.46
2022-10-18T00:34:15.758Z,74.39
2022-10-18T00:36:48.865Z,74.31
2022-10-18T00:39:23.563Z,74.26
2022-10-18T00:41:56.370Z,74.26
2022-10-18T00:45:20.975Z,74.33
2022-10-18T00:50:37.691Z,74.43
2022-10-18T00:53:13.544Z,74.36
2022-10-18T00:55:46.494Z,74.39
2022-10-18T00:58:21.176Z,74.39
2022-10-18T01:00:54.226Z,74.33
2022-10-18T01:06:10.961Z,74.61
2022-10-18T01:09:14.038Z,74.39
2022-10-18T01:12:05.718Z,74.47
2022-10-18T01:14:44.863Z,74.44
2022-10-18T01:17:21.957Z,74.49
2022-10-18T01:20:37.920Z,74.51
2022-10-18T01:23:14.446Z,74.52
2022-10-18T01:25:53.148Z,74.36
2022-10-18T01:28:39.963Z,74.45
2022-10-18T01:31:14.296Z,74.43
2022-10-18T01:33:51.606Z,74.19
2022-10-18T01:36:27.966Z,74.12
2022-10-18T01:39:05.902Z,74.04
2022-10-18T01:41:38.991Z,74.15
2022-10-18T01:44:16.154Z,73.94
2022-10-18T01:46:50.320Z,73.83
2022-10-18T01:49:23.945Z,73.84
2022-10-18T01:51:57.222Z,73.90
2022-10-18T01:54:33.383Z,73.91
2022-10-18T01:57:10.427Z,73.88
2022-10-18T01:59:51.044Z,73.93
2022-10-18T02:02:45.800Z,73.87
2022-10-18T02:05:30.091Z,73.87
2022-10-18T02:08:19.295Z,73.91
2022-10-18T02:10:45.943Z,73.88
2022-10-18T02:13:22.065Z,73.88
2022-10-18T02:15:57.399Z,73.85
2022-10-18T02:18:33.218Z,73.71
2022-10-18T02:21:09.479Z,73.65
2022-10-18T02:23:44.407Z,73.69
2022-10-18T02:26:18.337Z,73.80
2022-10-18T02:28:51.556Z,73.88
2022-10-18T02:31:30.278Z,73.91
2022-10-18T02:34:08.215Z,73.86
2022-10-18T02:36:41.479Z,73.81
2022-10-18T02:39:21.907Z,73.60
2022-10-18T02:41:56.361Z,73.50
2022-10-18T02:44:29.851Z,73.52
2022-10-18T02:47:03.527Z,73.61
2022-10-18T02:49:36.900Z,73.71
2022-10-18T02:52:09.944Z,73.75
2022-10-18T02:54:43.236Z,73.75
2022-10-18T02:57:16.769Z,73.78
2022-10-18T02:59:50.274Z,73.79
2022-10-18T03:02:25.743Z,73.69
2022-10-18T03:04:59.008Z,73.59
2022-10-18T03:07:33.014Z,73.59
2022-10-18T03:10:08.230Z,73.62
2022-10-18T03:12:43.266Z,73.65
2022-10-18T03:15:16.561Z,73.65
2022-10-18T03:17:50.902Z,73.63
2022-10-18T03:20:24.044Z,73.65
2022-10-18T03:22:58.139Z,73.58
2022-10-18T03:25:31.396Z,73.69
2022-10-18T03:28:04.552Z,73.73
2022-10-18T03:30:38.922Z,73.83
2022-10-18T03:33:12.585Z,73.83
2022-10-18T03:35:45.832Z,73.90
2022-10-18T03:38:19.582Z,73.92
2022-10-18T03:40:52.980Z,73.97
2022-10-18T03:43:26.340Z,74.09
2022-10-18T03:45:59.522Z,74.06
2022-10-18T03:48:34.337Z,74.14
2022-10-18T03:51:07.769Z,74.11
2022-10-18T03:53:40.968Z,74.07
2022-10-18T03:56:15.274Z,74.10
2022-10-18T03:58:48.472Z,74.08
2022-10-18T04:01:22.105Z,73.95
2022-10-18T04:03:56.025Z,73.78
2022-10-18T04:06:29.164Z,73.87
2022-10-18T04:09:04.252Z,73.88
2022-10-18T04:11:38.369Z,73.77
2022-10-18T04:14:11.886Z,73.84
2022-10-18T04:16:44.968Z,73.89
2022-10-18T04:19:18.311Z,73.92
2022-10-18T04:21:53.557Z,73.81
2022-10-18T04:24:28.679Z,73.73
2022-10-18T04:27:02.587Z,73.60
2022-10-18T04:29:35.876Z,73.43
2022-10-18T04:32:10.014Z,73.32
2022-10-18T04:37:17.606Z,73.07
2022-10-18T04:39:53.845Z,73.04
2022-10-18T04:42:27.495Z,72.96
2022-10-18T04:45:01.822Z,72.92
2022-10-18T04:47:35.692Z,72.82
2022-10-18T04:50:14.496Z,72.80
2022-10-18T04:52:47.597Z,72.79
2022-10-18T04:55:21.492Z,72.86
2022-10-18T04:57:55.474Z,72.83
2022-10-18T05:00:28.864Z,72.72
2022-10-18T05:03:05.056Z,72.65
2022-10-18T05:06:00.309Z,72.61
2022-10-18T05:08:14.762Z,72.56
2022-10-18T05:10:48.700Z,72.53
2022-10-18T05:13:22.980Z,72.58
2022-10-18T05:15:56.198Z,72.66
2022-10-18T05:18:30.232Z,72.59
2022-10-18T05:21:03.899Z,72.65
2022-10-18T05:23:38.815Z,72.72
2022-10-18T05:26:13.683Z,72.67
2022-10-18T05:28:46.838Z,72.70
2022-10-18T05:31:20.394Z,72.77
2022-10-18T05:33:53.843Z,72.76
2022-10-18T05:36:27.102Z,72.81
2022-10-18T05:39:04.026Z,72.79
2022-10-18T05:41:35.366Z,72.80
2022-10-18T05:44:11.311Z,72.70
2022-10-18T05:46:44.537Z,72.64
2022-10-18T05:49:18.301Z,72.56
2022-10-18T05:51:51.503Z,72.65
2022-10-18T05:54:25.698Z,72.57
2022-10-18T05:56:58.830Z,72.48
2022-10-18T05:59:31.923Z,72.38
2022-10-18T06:02:05.487Z,72.33
2022-10-18T06:04:38.701Z,72.28
2022-10-18T06:07:12.225Z,72.32
2022-10-18T06:09:46.135Z,72.37
2022-10-18T06:12:19.306Z,72.34
2022-10-18T06:14:55.813Z,72.30
2022-10-18T06:17:31.818Z,72.42
2022-10-18T06:20:04.160Z,72.52
2022-10-18T06:22:37.430Z,72.61
2022-10-18T06:25:11.824Z,72.72
2022-10-18T06:27:44.995Z,72.78
2022-10-18T06:30:18.575Z,72.80
2022-10-18T06:32:51.740Z,72.83
2022-10-18T06:35:25.206Z,72.84
2022-10-18T06:37:58.529Z,72.87
2022-10-18T06:40:33.802Z,72.96
2022-10-18T06:43:20.680Z,73.18
2022-10-18T06:45:45.198Z,73.75
2022-10-18T06:50:58.324Z,74.69
2022-10-18T06:53:36.252Z,75.23
2022-10-18T06:56:12.279Z,75.63
2022-10-18T06:58:45.552Z,76.58
2022-10-18T07:01:19.895Z,77.89
2022-10-18T07:03:55.050Z,78.97
2022-10-18T07:06:28.394Z,79.67
2022-10-18T07:09:03.373Z,80.16
2022-10-18T07:11:37.001Z,80.65
2022-10-18T07:14:15.373Z,81.08
2022-10-18T07:16:45.760Z,81.45
2022-10-18T07:19:19.036Z,81.84
2022-10-18T07:21:52.126Z,82.05
2022-10-18T07:24:25.391Z,82.37
2022-10-18T07:26:58.541Z,82.77
2022-10-18T07:29:32.958Z,82.96
2022-10-18T07:32:06.502Z,83.17
2022-10-18T07:34:39.817Z,83.27
2022-10-18T07:37:13.035Z,83.34
2022-10-18T07:39:46.212Z,83.38
2022-10-18T07:42:19.451Z,83.39
2022-10-18T07:44:54.726Z,83.55
2022-10-18T07:47:30.084Z,83.70
2022-10-18T07:50:03.527Z,83.94
2022-10-18T07:52:38.277Z,84.01
2022-10-18T07:55:11.739Z,84.07
2022-10-18T07:57:44.869Z,84.13
2022-10-18T08:00:18.700Z,84.15
2022-10-18T08:02:53.471Z,84.11
2022-10-18T08:05:27.693Z,84.14
2022-10-18T08:08:04.390Z,84.02
2022-10-18T08:10:38.272Z,84.11
2022-10-18T08:13:11.372Z,84.21
2022-10-18T08:15:44.873Z,84.30
2022-10-18T08:18:18.371Z,84.38
2022-10-18T08:20:51.547Z,84.49
2022-10-18T08:23:24.699Z,84.62
2022-10-18T08:26:00.292Z,84.80
2022-10-18T08:28:35.286Z,85.02
2022-10-18T08:31:11.415Z,85.11
2022-10-18T08:33:44.807Z,85.22
2022-10-18T08:36:19.491Z,85.33
2022-10-18T08:38:53.002Z,85.35
2022-10-18T08:41:33.621Z,85.39
2022-10-18T08:44:11.878Z,85.52
2022-10-18T08:46:47.897Z,85.59
2022-10-18T08:49:28.620Z,85.72
2022-10-18T08:52:02.342Z,85.88
2022-10-18T08:54:39.189Z,86.12
2022-10-18T08:57:18.157Z,86.29
2022-10-18T08:59:51.266Z,86.10
2022-10-18T09:02:33.550Z,86.03
2022-10-18T09:05:12.205Z,86.21
2022-10-18T09:08:11.697Z,86.38
2022-10-18T09:10:48.904Z,86.39
2022-10-18T09:13:54.649Z,86.47
2022-10-18T09:16:33.577Z,86.46
2022-10-18T09:19:10.509Z,86.48
2022-10-18T09:21:47.195Z,86.63
2022-10-18T09:24:26.071Z,86.69
2022-10-18T09:27:04.615Z,86.35
2022-10-18T09:29:51.176Z,86.40
2022-10-18T09:32:33.603Z,86.55
2022-10-18T09:35:14.632Z,86.53
2022-10-18T09:37:49.505Z,86.39
2022-10-18T09:40:27.635Z,86.15
2022-10-18T09:43:03.800Z,86.09
2022-10-18T09:45:40.232Z,86.33
2022-10-18T09:48:17.393Z,86.38
2022-10-18T09:50:55.400Z,86.48
2022-10-18T09:53:30.496Z,86.47
2022-10-18T09:56:06.748Z,86.49
2022-10-18T09:58:46.697Z,86.54
2022-10-18T10:01:22.800Z,86.76
2022-10-18T10:03:57.851Z,87.13
2022-10-18T10:06:34.642Z,87.30
2022-10-18T10:09:12.079Z,87.35
2022-10-18T10:11:48.836Z,87.39
2022-10-18T10:14:24.895Z,87.30
2022-10-18T10:17:02.325Z,87.19
2022-10-18T10:19:39.408Z,87.31
2022-10-18T10:22:14.658Z,87.51
2022-10-18T10:24:51.147Z,87.79
2022-10-18T10:27:31.561Z,87.95
2022-10-18T10:30:07.636Z,88.06
2022-10-18T10:32:50.148Z,87.97
2022-10-18T10:35:41.335Z,87.64
2022-10-18T10:38:01.103Z,87.53
2022-10-18T10:40:35.018Z,87.80
2022-10-18T10:43:36.509Z,88.16
2022-10-18T10:46:01.932Z,88.25
2022-10-18T10:48:43.438Z,88.42
2022-10-18T10:51:18.562Z,88.40
2022-10-18T10:53:55.732Z,88.38
2022-10-18T10:56:32.369Z,88.47
2022-10-18T10:59:12.361Z,88.53
2022-10-18T11:01:47.946Z,88.52
2022-10-18T11:04:31.465Z,88.56
2022-10-18T11:07:10.135Z,88.53
2022-10-18T11:09:49.556Z,88.59
2022-10-18T11:12:30.509Z,88.71
2022-10-18T11:15:19.452Z,88.65
2022-10-18T11:18:00.343Z,88.73
2022-10-18T11:20:36.777Z,88.72
2022-10-18T11:23:12.627Z,88.72
2022-10-18T11:26:02.389Z,88.82
2022-10-18T11:28:47.738Z,88.82
2022-10-18T11:31:24.180Z,88.92
2022-10-18T11:34:11.224Z,88.93
2022-10-18T11:36:49.322Z,88.95
2022-10-18T11:39:20.418Z,89.00
2022-10-18T11:42:01.458Z,89.10
2022-10-18T11:44:37.782Z,89.16
2022-10-18T11:47:15.158Z,89.16
2022-10-18T11:50:02.079Z,89.22
2022-10-18T11:52:39.363Z,89.34
2022-10-18T11:55:27.722Z,89.40
2022-10-18T11:58:03.826Z,89.43
2022-10-18T12:00:48.805Z,89.44
2022-10-18T12:03:39.574Z,89.47
2022-10-18T12:06:16.450Z,89.56
2022-10-18T12:08:52.900Z,89.70
2022-10-18T12:11:30.766Z,89.72
2022-10-18T12:14:07.026Z,89.81
2022-10-18T12:16:51.523Z,89.80
2022-10-18T12:19:25.189Z,89.88
2022-10-18T12:21:58.381Z,90.01
2022-10-18T12:24:33.381Z,90.04
2022-10-18T12:27:07.481Z,90.08
2022-10-18T12:29:45.446Z,90.08
2022-10-18T12:32:22.237Z,90.05
2022-10-18T12:34:58.292Z,90.17
2022-10-18T12:40:52.743Z,90.50
2022-10-18T12:43:30.611Z,90.48
2022-10-18T12:46:03.320Z,90.63
2022-10-18T12:48:39.193Z,90.57
2022-10-18T12:51:18.397Z,90.57
2022-10-18T12:53:54.408Z,90.73
2022-10-18T12:56:45.143Z,90.78
2022-10-18T12:59:54.576Z,90.75
2022-10-18T13:02:31.497Z,90.79
2022-10-18T13:05:41.017Z,90.90
2022-10-18T13:08:05.903Z,90.96
2022-10-18T13:10:39.450Z,90.73
2022-10-18T13:13:39.228Z,90.46
2022-10-18T13:16:05.507Z,90.14
2022-10-18T13:18:49.397Z,89.32
2022-10-18T13:21:27.454Z,88.48
2022-10-18T13:24:28.394Z,88.29
2022-10-18T13:30:23.203Z,88.20
2022-10-18T13:33:00.454Z,90.16
2022-10-18T13:35:55.662Z,89.33
2022-10-18T13:42:23.953Z,88.21
2022-10-18T13:45:00.800Z,88.15
2022-10-18T13:47:38.474Z,87.98
2022-10-18T13:50:39.843Z,87.45
2022-10-18T13:53:42.319Z,87.63
2022-10-18T13:56:29.545Z,87.37
2022-10-18T13:59:15.354Z,87.46
2022-10-18T14:02:02.229Z,87.30
2022-10-18T14:04:51.330Z,87.27
2022-10-18T14:07:26.580Z,86.70
2022-10-18T14:10:04.304Z,86.56
2022-10-18T14:12:42.649Z,86.15
2022-10-18T14:15:23.320Z,86.15
2022-10-18T14:18:00.176Z,86.28
2022-10-18T14:20:49.030Z,86.15
2022-10-18T14:23:11.323Z,86.03
2022-10-18T14:25:45.350Z,85.94
2022-10-18T14:28:27.344Z,86.00
2022-10-18T14:30:59.100Z,86.14
2022-10-18T14:33:37.035Z,85.89
2022-10-18T14:36:15.745Z,85.25
2022-10-18T14:38:55.791Z,84.98
2022-10-18T14:41:32.110Z,84.75
2022-10-18T14:44:15.127Z,84.84
2022-10-18T14:46:51.549Z,84.33
2022-10-18T14:49:25.858Z,84.57
2022-10-18T14:52:02.406Z,84.76
2022-10-18T14:54:40.005Z,84.64
2022-10-18T14:57:21.780Z,84.37
2022-10-18T15:00:00.757Z,84.46
2022-10-18T15:02:41.906Z,85.00
2022-10-18T15:05:23.590Z,84.98
2022-10-18T15:08:00.446Z,85.32
2022-10-18T15:10:37.089Z,84.93
2022-10-18T15:13:13.803Z,84.49
2022-10-18T15:15:48.882Z,82.96
2022-10-18T15:18:27.789Z,83.09
2022-10-18T15:21:23.523Z,83.75
2022-10-18T15:24:00.556Z,84.29
2022-10-18T15:26:35.128Z,84.49
2022-10-18T15:29:10.846Z,84.72
2022-10-18T15:31:45.674Z,84.72
2022-10-18T15:34:23.432Z,83.69
2022-10-18T15:36:58.481Z,82.90
2022-10-18T15:39:33.170Z,82.73
2022-10-18T15:42:09.284Z,82.75
2022-10-18T15:44:52.490Z,82.71
2022-10-18T15:47:26.528Z,82.71
2022-10-18T15:50:04.548Z,83.01
2022-10-18T15:52:45.208Z,82.72
2022-10-18T16:29:41.170Z,81.85
2022-10-18T16:55:36.018Z,79.87
2022-10-18T16:58:19.936Z,79.54
2022-10-18T17:01:00.345Z,79.57
2022-10-18T17:03:34.270Z,79.63
2022-10-18T17:06:09.794Z,79.70
2022-10-18T17:08:53.117Z,79.30
2022-10-18T17:11:34.554Z,78.61
2022-10-18T17:14:15.177Z,78.68
2022-10-18T17:16:53.079Z,78.60
2022-10-18T17:19:26.227Z,77.78
2022-10-18T17:22:06.341Z,78.00
2022-10-18T17:24:46.808Z,77.75
2022-10-18T17:27:26.750Z,78.10
2022-10-18T17:30:01.500Z,78.43
2022-10-18T17:32:35.282Z,78.66
2022-10-18T17:35:12.673Z,78.66
2022-10-18T17:37:48.278Z,78.40
2022-10-18T17:40:26.294Z,77.94
2022-10-18T17:43:05.610Z,78.26
2022-10-18T17:45:40.542Z,78.06
2022-10-18T17:48:24.725Z,77.95
2022-10-18T17:51:06.074Z,78.19
2022-10-18T17:56:38.667Z,78.02
2022-10-18T17:59:12.655Z,77.73
2022-10-18T18:01:49.754Z,77.43
2022-10-18T18:04:25.429Z,77.44
2022-10-18T18:07:04.971Z,77.40
2022-10-18T18:09:50.462Z,76.77
2022-10-18T18:12:26.037Z,76.87
2022-10-18T18:15:04.391Z,76.77
2022-10-18T18:17:55.996Z,76.81
2022-10-18T18:20:16.440Z,77.15
2022-10-18T18:22:56.462Z,77.40
2022-10-18T18:25:30.612Z,77.55
2022-10-18T18:28:10.288Z,77.83
2022-10-18T18:30:45.563Z,77.94
2022-10-18T18:33:22.358Z,78.03
2022-10-18T18:35:59.651Z,78.13
2022-10-18T18:38:34.105Z,78.15
2022-10-18T18:41:12.395Z,78.13
2022-10-18T18:43:50.016Z,78.16
2022-10-18T18:46:24.098Z,78.13
2022-10-18T18:48:58.542Z,78.06
2022-10-18T18:51:32.902Z,78.01
2022-10-18T18:54:06.186Z,77.93
2022-10-18T18:56:39.604Z,77.93
2022-10-18T18:59:15.755Z,77.88
2022-10-18T19:01:48.977Z,78.00
2022-10-18T19:04:22.460Z,78.06
2022-10-18T19:06:55.576Z,78.18
2022-10-18T19:09:28.934Z,78.21
2022-10-18T19:12:02.161Z,78.14
2022-10-18T19:14:35.733Z,78.12
2022-10-18T19:17:12.927Z,77.91
2022-10-18T19:19:47.892Z,77.90
2022-10-18T19:22:23.495Z,77.87
2022-10-18T19:24:59.800Z,77.78
2022-10-18T19:27:34.635Z,77.72
2022-10-18T19:30:15.306Z,77.79
2022-10-18T19:32:50.236Z,77.85
2022-10-18T19:47:00.923Z,78.10
2022-10-18T19:50:19.029Z,78.20
2022-10-18T19:53:06.392Z,78.28
2022-10-18T20:00:56.198Z,78.52
2022-10-18T20:20:03.338Z,78.20
2022-10-18T20:22:36.423Z,78.14
2022-10-18T20:25:11.648Z,78.11
2022-10-18T20:27:45.145Z,78.03
2022-10-18T20:30:21.220Z,77.95
2022-10-18T20:32:55.389Z,77.88
2022-10-18T20:35:28.631Z,77.74
2022-10-18T20:38:01.799Z,77.60
2022-10-18T20:40:35.357Z,77.41
2022-10-18T20:43:09.319Z,77.24
2022-10-18T20:45:42.591Z,77.06
2022-10-18T20:48:15.782Z,76.94
2022-10-18T20:50:48.926Z,76.84
2022-10-18T20:53:23.138Z,77.02
2022-10-18T20:56:04.563Z,77.18
2022-10-18T20:58:38.909Z,77.23
2022-10-18T21:01:14.253Z,77.28
2022-10-18T21:03:49.619Z,77.35
2022-10-18T21:06:24.871Z,77.39
2022-10-18T21:08:59.367Z,77.48
2022-10-18T21:11:34.914Z,77.55
2022-10-18T21:14:09.119Z,77.66
2022-10-18T21:16:44.148Z,77.49
2022-10-18T21:19:21.190Z,77.33
2022-10-18T21:21:59.346Z,77.26
2022-10-18T21:24:41.327Z,77.13
2022-10-18T21:27:18.436Z,77.08
2022-10-18T21:29:53.168Z,76.88
2022-10-18T21:32:27.631Z,76.72
2022-10-18T21:35:04.953Z,76.61
2022-10-18T21:37:51.116Z,76.45
2022-10-18T21:40:33.660Z,76.51
2022-10-18T21:43:09.091Z,76.68
2022-10-18T21:45:43.002Z,76.89
2022-10-18T21:52:16.744Z,76.82
2022-10-18T22:32:33.975Z,76.77
2022-10-18T22:35:10.082Z,76.85
2022-10-18T22:37:43.141Z,76.79
2022-10-18T22:40:19.707Z,76.80
2022-10-18T22:42:56.045Z,76.75
2022-10-18T22:45:30.008Z,76.61
2022-10-18T22:48:07.983Z,76.46
2022-10-18T22:50:41.459Z,76.42
2022-10-18T22:53:14.691Z,76.34
2022-10-18T22:55:50.269Z,76.37
2022-10-18T22:58:26.345Z,76.35
2022-10-18T23:01:06.169Z,76.28
2022-10-18T23:03:42.453Z,76.14
2022-10-18T23:06:25.686Z,75.92
2022-10-18T23:09:00.982Z,75.72
2022-10-18T23:11:37.827Z,75.59
2022-10-18T23:14:11.815Z,75.44
2022-10-18T23:16:48.171Z,75.42
2022-10-18T23:19:21.880Z,75.43
2022-10-18T23:21:55.101Z,75.33
2022-10-18T23:24:28.565Z,75.26
2022-10-18T23:27:01.684Z,75.13
2022-10-18T23:29:34.890Z,74.98
2022-10-18T23:32:09.028Z,74.91
2022-10-18T23:34:42.241Z,74.86
2022-10-18T23:37:15.430Z,74.85
2022-10-18T23:39:48.642Z,74.96
2022-10-18T23:42:21.734Z,75.09
2022-10-18T23:44:54.854Z,75.21
2022-10-18T23:47:27.986Z,75.21
2022-10-18T23:50:01.062Z,75.32
2022-10-18T23:52:34.292Z,75.39
2022-10-18T23:55:09.401Z,75.37
2022-10-18T23:57:43.890Z,75.38
